createdAt,value
2022-08-22T00:01:38.890Z,94794.78
2022-08-22T00:02:49.711Z,94800.56
2022-08-22T00:02:52.801Z,94814.56
2022-08-22T00:03:10.557Z,94801.94
2022-08-22T00:04:13.959Z,94796.41
2022-08-22T00:06:50.675Z,94797.25
2022-08-22T00:09:29.523Z,94794.25
2022-08-22T00:12:05.503Z,94797.53
2022-08-22T00:14:39.467Z,94801.91
2022-08-22T00:17:20.304Z,94803.28
2022-08-22T00:19:51.085Z,94801.34
2022-08-22T00:22:22.402Z,94794.78
2022-08-22T00:24:54.419Z,94799.69
2022-08-22T00:27:25.259Z,94797.25
2022-08-22T00:29:56.501Z,94801.09
2022-08-22T00:32:27.194Z,94801.63
2022-08-22T00:34:59.284Z,94795.88
2022-08-22T00:37:31.641Z,94796.44
2022-08-22T00:40:03.563Z,94791.25
2022-08-22T00:42:48.314Z,94795.34
2022-08-22T00:45:32.113Z,94799.47
2022-08-22T00:48:14.682Z,94796.44
2022-08-22T00:51:07.604Z,94801.94
2022-08-22T00:53:46.078Z,94793.44
2022-08-22T00:56:35.188Z,94794.53
2022-08-22T00:59:25.257Z,94791.78
2022-08-22T01:01:58.922Z,94790.41
2022-08-22T01:04:53.214Z,94789.31
2022-08-22T01:07:39.192Z,94793.13
2022-08-22T01:10:20.400Z,94785.72
2022-08-22T01:13:03.089Z,94781.91
2022-08-22T01:15:34.919Z,94789.00
2022-08-22T01:18:32.036Z,94779.44
2022-08-22T01:21:26.857Z,94785.44
2022-08-22T01:24:33.577Z,94790.66
2022-08-22T01:27:32.590Z,94783.53
2022-08-22T01:30:14.003Z,94778.06
2022-08-22T01:33:17.224Z,94779.44
2022-08-22T01:36:00.928Z,94778.59
2022-08-22T01:38:55.563Z,94778.03
2022-08-22T01:41:51.592Z,94780.22
2022-08-22T01:44:46.676Z,94780.22
2022-08-22T01:47:16.414Z,94775.03
2022-08-22T01:49:45.879Z,94771.47
2022-08-22T01:52:19.526Z,94784.06
2022-08-22T01:54:52.079Z,94782.09
2022-08-22T01:57:19.786Z,94776.09
2022-08-22T01:59:49.621Z,94774.47
2022-08-22T02:02:38.081Z,94786.47
2022-08-22T02:05:12.843Z,94781.81
2022-08-22T02:07:48.952Z,94773.06
2022-08-22T02:10:21.103Z,94778.00
2022-08-22T02:12:55.172Z,94775.78
2022-08-22T02:15:26.305Z,94772.50
2022-08-22T02:18:14.469Z,94778.25
2022-08-22T02:20:58.020Z,94771.69
2022-08-22T02:23:33.096Z,94782.94
2022-08-22T02:26:07.377Z,94776.63
2022-08-22T02:28:57.196Z,94774.72
2022-08-22T02:31:36.557Z,94781.28
2022-08-22T02:34:18.773Z,94780.72
2022-08-22T02:36:48.533Z,94778.53
2022-08-22T02:39:28.663Z,94774.16
2022-08-22T02:42:01.028Z,94773.63
2022-08-22T02:44:32.451Z,94778.00
2022-08-22T02:47:05.122Z,94780.22
2022-08-22T02:49:35.645Z,94779.09
2022-08-22T02:52:14.949Z,94783.47
2022-08-22T02:54:49.354Z,94770.59
2022-08-22T02:57:21.681Z,94781.78
2022-08-22T03:00:07.639Z,94783.94
2022-08-22T03:03:07.044Z,94772.41
2022-08-22T03:05:47.347Z,94772.91
2022-08-22T03:08:22.953Z,94769.38
2022-08-22T03:11:02.953Z,94776.75
2022-08-22T03:13:39.180Z,94769.34
2022-08-22T03:16:12.191Z,94768.25
2022-08-22T03:18:46.194Z,94774.53
2022-08-22T03:21:16.997Z,94776.72
2022-08-22T03:23:47.901Z,94777.25
2022-08-22T03:26:20.274Z,94779.19
2022-08-22T03:28:59.956Z,94778.63
2022-08-22T03:31:30.038Z,94778.09
2022-08-22T03:34:18.744Z,94774.81
2022-08-22T03:36:49.374Z,94772.59
2022-08-22T03:39:20.025Z,94770.13
2022-08-22T03:42:14.626Z,94778.88
2022-08-22T03:45:17.090Z,94775.34
2022-08-22T03:47:58.146Z,94778.31
2022-08-22T03:50:40.987Z,94774.69
2022-08-22T03:53:38.842Z,94778.22
2022-08-22T03:56:34.298Z,94775.72
2022-08-22T03:59:35.158Z,94784.72
2022-08-22T04:02:42.977Z,94780.28
2022-08-22T04:05:37.841Z,94791.69
2022-08-22T04:08:29.028Z,94790.06
2022-08-22T04:11:10.562Z,94781.34
2022-08-22T04:13:52.785Z,94787.66
2022-08-22T04:16:53.999Z,94793.34
2022-08-22T04:19:38.313Z,94793.66
2022-08-22T04:22:34.135Z,94793.41
2022-08-22T04:25:08.058Z,94797.03
2022-08-22T04:27:39.513Z,94795.66
2022-08-22T04:30:12.438Z,94799.50
2022-08-22T04:32:46.264Z,94797.06
2022-08-22T04:35:20.164Z,94807.38
2022-08-22T04:37:52.449Z,94798.38
2022-08-22T04:40:21.748Z,94803.28
2022-08-22T04:42:53.997Z,94798.88
2022-08-22T04:45:22.756Z,94801.09
2022-08-22T04:47:56.534Z,94807.38
2022-08-22T04:50:26.810Z,94814.75
2022-08-22T04:53:04.538Z,94814.22
2022-08-22T04:55:35.229Z,94808.22
2022-08-22T04:58:10.751Z,94818.63
2022-08-22T05:00:56.018Z,94812.09
2022-08-22T05:03:28.781Z,94814.31
2022-08-22T05:05:58.610Z,94808.31
2022-08-22T05:08:30.343Z,94811.06
2022-08-22T05:10:58.314Z,94813.84
2022-08-22T05:13:29.855Z,94812.50
2022-08-22T05:16:00.070Z,94815.50
2022-08-22T05:18:31.471Z,94819.31
2022-08-22T05:21:03.246Z,94817.47
2022-08-22T05:23:34.785Z,94818.84
2022-08-22T05:26:04.784Z,94819.44
2022-08-22T05:28:36.071Z,94821.63
2022-08-22T05:31:06.173Z,94826.06
2022-08-22T05:33:39.587Z,94819.28
2022-08-22T05:36:10.186Z,94823.38
2022-08-22T05:38:42.045Z,94827.00
2022-08-22T05:41:12.112Z,94827.84
2022-08-22T05:43:42.061Z,94826.78
2022-08-22T05:46:13.023Z,94830.06
2022-08-22T05:48:44.097Z,94830.66
2022-08-22T05:51:17.010Z,94832.31
2022-08-22T05:53:48.201Z,94836.69
2022-08-22T05:56:20.745Z,94836.69
2022-08-22T05:58:52.512Z,94829.03
2022-08-22T06:01:38.651Z,94831.22
2022-08-22T06:04:15.321Z,94830.97
2022-08-22T06:06:47.211Z,94835.06
2022-08-22T06:09:19.170Z,94832.88
2022-08-22T06:11:51.583Z,94844.34
2022-08-22T06:14:28.843Z,94828.97
2022-08-22T06:17:04.061Z,94830.56
2022-08-22T06:19:34.195Z,94831.06
2022-08-22T06:22:02.044Z,94832.38
2022-08-22T06:24:29.820Z,94843.56
2022-08-22T06:27:03.629Z,94833.06
2022-08-22T06:29:34.610Z,94835.47
2022-08-22T06:32:05.026Z,94834.03
2022-08-22T06:34:36.031Z,94835.03
2022-08-22T06:37:05.838Z,94837.66
2022-08-22T06:39:35.380Z,94839.72
2022-08-22T06:42:06.522Z,94845.19
2022-08-22T06:44:38.640Z,94849.53
2022-08-22T06:47:10.335Z,94851.25
2022-08-22T06:49:40.648Z,94852.19
2022-08-22T06:52:14.314Z,94850.59
2022-08-22T06:54:47.535Z,94853.19
2022-08-22T06:57:27.331Z,94857.09
2022-08-22T06:59:55.964Z,94857.91
2022-08-22T07:02:28.657Z,94866.06
2022-08-22T07:04:58.277Z,94859.03
2022-08-22T07:07:28.184Z,94866.66
2022-08-22T07:09:57.656Z,94864.81
2022-08-22T07:12:30.739Z,94867.84
2022-08-22T07:15:14.695Z,94862.28
2022-08-22T07:17:56.423Z,94865.78
2022-08-22T07:20:29.377Z,94854.47
2022-08-22T07:22:59.805Z,94859.97
2022-08-22T07:25:35.967Z,94862.78
2022-08-22T07:28:18.107Z,94857.88
2022-08-22T07:30:55.481Z,94861.59
2022-08-22T07:33:34.784Z,94861.41
2022-08-22T07:36:23.016Z,94858.38
2022-08-22T07:39:06.037Z,94861.72
2022-08-22T07:41:48.852Z,94864.63
2022-08-22T07:44:20.843Z,94859.53
2022-08-22T07:46:56.598Z,94855.81
2022-08-22T07:49:26.770Z,94861.47
2022-08-22T07:52:00.234Z,94860.22
2022-08-22T07:54:38.141Z,94863.88
2022-08-22T08:03:23.712Z,94850.78
2022-08-22T08:05:52.403Z,94859.28
2022-08-22T08:08:28.204Z,94861.78
2022-08-22T08:11:01.556Z,94863.44
2022-08-22T08:13:38.472Z,94857.53
2022-08-22T08:16:20.065Z,94864.28
2022-08-22T08:18:52.129Z,94857.88
2022-08-22T08:21:26.485Z,94856.84
2022-08-22T08:23:56.422Z,94851.09
2022-08-22T08:26:29.294Z,94848.91
2022-08-22T08:28:58.276Z,94851.78
2022-08-22T08:31:29.115Z,94849.09
2022-08-22T08:34:03.314Z,94842.94
2022-08-22T08:36:38.675Z,94849.19
2022-08-22T08:39:16.307Z,94848.91
2022-08-22T08:42:16.438Z,94837.22
2022-08-22T08:45:07.113Z,94834.16
2022-08-22T08:47:57.705Z,94848.47
2022-08-22T08:50:34.996Z,94844.28
2022-08-22T08:53:51.028Z,94846.75
2022-08-22T08:56:27.037Z,94836.63
2022-08-22T08:59:01.178Z,94841.31
2022-08-22T09:02:07.925Z,94837.91
2022-08-22T09:05:01.273Z,94836.91
2022-08-22T09:07:48.357Z,94840.31
2022-08-22T09:10:50.303Z,94840.06
2022-08-22T09:13:50.015Z,94843.38
2022-08-22T09:16:32.667Z,94842.88
2022-08-22T09:19:35.812Z,94837.06
2022-08-22T09:22:17.660Z,94845.84
2022-08-22T09:25:06.249Z,94837.28
2022-08-22T09:27:37.619Z,94841.34
2022-08-22T09:30:11.527Z,94830.63
2022-08-22T09:32:47.827Z,94837.97
2022-08-22T09:35:23.225Z,94842.75
2022-08-22T09:38:00.795Z,94833.53
2022-08-22T09:40:32.015Z,94835.59
2022-08-22T09:43:04.401Z,94834.47
2022-08-22T09:45:43.048Z,94834.25
2022-08-22T09:48:21.575Z,94838.63
2022-08-22T09:51:01.644Z,94837.56
2022-08-22T09:53:53.129Z,94840.88
2022-08-22T09:56:26.176Z,94840.91
2022-08-22T09:59:02.109Z,94838.03
2022-08-22T10:01:35.419Z,94830.00
2022-08-22T10:04:32.512Z,94829.75
2022-08-22T10:07:11.529Z,94834.84
2022-08-22T10:09:43.855Z,94835.06
2022-08-22T10:12:19.201Z,94836.53
2022-08-22T10:15:06.900Z,94841.44
2022-08-22T10:17:40.999Z,94841.97
2022-08-22T10:20:16.688Z,94839.97
2022-08-22T10:22:47.397Z,94833.56
2022-08-22T10:25:28.596Z,94831.28
2022-08-22T10:28:16.435Z,94836.00
2022-08-22T10:30:54.842Z,94834.84
2022-08-22T10:33:29.048Z,94837.06
2022-08-22T10:36:05.071Z,94836.59
2022-08-22T10:38:46.502Z,94828.91
2022-08-22T10:41:22.729Z,94834.19
2022-08-22T10:43:56.572Z,94837.94
2022-08-22T10:46:36.005Z,94837.75
2022-08-22T10:49:08.500Z,94833.41
2022-08-22T10:51:43.465Z,94840.03
2022-08-22T10:54:40.009Z,94834.97
2022-08-22T10:57:16.122Z,94826.09
2022-08-22T10:59:55.638Z,94836.97
2022-08-22T11:02:46.463Z,94828.59
2022-08-22T11:05:40.080Z,94835.06
2022-08-22T11:08:35.290Z,94834.97
2022-08-22T11:11:09.095Z,94833.50
2022-08-22T11:13:43.586Z,94835.34
2022-08-22T11:16:20.740Z,94832.34
2022-08-22T11:19:15.266Z,94838.97
2022-08-22T11:21:55.351Z,94826.59
2022-08-22T11:24:56.678Z,94824.47
2022-08-22T11:27:38.006Z,94826.78
2022-08-22T11:30:11.256Z,94825.44
2022-08-22T11:33:10.066Z,94826.25
2022-08-22T11:35:42.732Z,94828.34
2022-08-22T11:38:21.279Z,94824.47
2022-08-22T11:40:58.919Z,94827.97
2022-08-22T11:43:41.152Z,94824.63
2022-08-22T11:46:19.801Z,94829.19
2022-08-22T11:48:57.853Z,94827.81
2022-08-22T11:51:41.967Z,94826.16
2022-08-22T11:54:14.093Z,94822.81
2022-08-22T11:56:48.869Z,94813.16
2022-08-22T11:59:22.927Z,94814.94
2022-08-22T12:01:56.930Z,94810.53
2022-08-22T12:04:32.596Z,94815.78
2022-08-22T12:07:09.180Z,94806.81
2022-08-22T12:09:44.118Z,94811.50
2022-08-22T12:12:25.630Z,94815.78
2022-08-22T12:15:01.583Z,94816.44
2022-08-22T12:17:55.409Z,94810.59
2022-08-22T12:20:56.253Z,94815.31
2022-08-22T12:23:48.720Z,94806.34
2022-08-22T12:26:22.927Z,94799.38
2022-08-22T12:29:05.201Z,94804.88
2022-08-22T12:32:03.437Z,94803.56
2022-08-22T12:34:36.176Z,94795.53
2022-08-22T12:37:10.293Z,94796.59
2022-08-22T12:39:49.570Z,94800.34
2022-08-22T12:42:41.925Z,94800.63
2022-08-22T12:45:22.448Z,94793.38
2022-08-22T12:47:58.356Z,94778.00
2022-08-22T12:50:36.946Z,94778.00
2022-08-22T12:53:28.419Z,94774.22
2022-08-22T12:56:10.340Z,94767.91
2022-08-22T12:58:51.049Z,94768.75
2022-08-22T13:01:23.262Z,94765.03
2022-08-22T13:04:06.432Z,94769.34
2022-08-22T13:06:56.843Z,94764.34
2022-08-22T13:09:30.744Z,94763.66
2022-08-22T13:12:02.592Z,94764.50
2022-08-22T13:14:33.935Z,94767.28
2022-08-22T13:17:15.162Z,94768.63
2022-08-22T13:20:00.770Z,94754.34
2022-08-22T13:22:31.653Z,94747.16
2022-08-22T13:25:02.278Z,94761.19
2022-08-22T13:27:37.228Z,94755.75
2022-08-22T13:30:21.204Z,94759.00
2022-08-22T13:32:52.769Z,94748.66
2022-08-22T13:35:24.563Z,94748.56
2022-08-22T13:37:56.334Z,94759.00
2022-08-22T13:40:28.994Z,94759.56
2022-08-22T13:43:04.314Z,94761.75
2022-08-22T13:45:34.261Z,94760.41
2022-08-22T13:48:08.739Z,94757.38
2022-08-22T13:50:53.666Z,94759.44
2022-08-22T13:53:28.065Z,94750.72
2022-08-22T13:56:01.744Z,94752.41
2022-08-22T13:58:33.913Z,94751.88
2022-08-22T14:01:31.137Z,94746.13
2022-08-22T14:04:05.507Z,94751.25
2022-08-22T14:06:52.110Z,94743.59
2022-08-22T14:09:31.447Z,94748.78
2022-08-22T14:12:14.549Z,94739.00
2022-08-22T14:14:46.219Z,94744.53
2022-08-22T14:17:19.546Z,94743.31
2022-08-22T14:19:59.382Z,94740.63
2022-08-22T14:22:31.749Z,94741.16
2022-08-22T14:25:07.295Z,94734.47
2022-08-22T14:27:39.679Z,94736.59
2022-08-22T14:30:19.267Z,94736.91
2022-08-22T14:32:49.611Z,94730.63
2022-08-22T14:35:35.276Z,94734.94
2022-08-22T14:38:29.860Z,94742.13
2022-08-22T14:41:02.111Z,94744.13
2022-08-22T14:43:53.817Z,94737.91
2022-08-22T14:46:26.618Z,94745.38
2022-08-22T14:49:30.609Z,94735.41
2022-08-22T14:52:19.422Z,94738.47
2022-08-22T14:54:48.055Z,94736.81
2022-08-22T14:57:22.208Z,94743.13
2022-08-22T14:59:51.967Z,94742.66
2022-08-22T15:02:26.728Z,94738.47
2022-08-22T15:05:08.534Z,94740.34
2022-08-22T15:07:54.322Z,94742.56
2022-08-22T15:10:34.275Z,94736.00
2022-08-22T15:13:08.991Z,94740.06
2022-08-22T15:16:09.578Z,94738.91
2022-08-22T15:18:38.995Z,94734.41
2022-08-22T15:21:17.715Z,94747.38
2022-08-22T15:23:54.513Z,94740.47
2022-08-22T15:26:35.212Z,94740.63
2022-08-22T15:29:20.799Z,94734.75
2022-08-22T15:32:00.963Z,94737.38
2022-08-22T15:34:38.313Z,94730.66
2022-08-22T15:37:32.585Z,94732.28
2022-08-22T15:40:31.060Z,94741.19
2022-08-22T15:42:59.827Z,94743.16
2022-08-22T15:45:33.810Z,94744.16
2022-08-22T15:48:04.812Z,94746.34
2022-08-22T15:50:41.942Z,94749.47
2022-08-22T15:53:19.632Z,94746.59
2022-08-22T15:56:26.436Z,94751.19
2022-08-22T15:59:48.142Z,94750.47
2022-08-22T16:03:02.403Z,94748.06
2022-08-22T16:05:57.820Z,94741.50
2022-08-22T16:08:32.939Z,94738.38
2022-08-22T16:11:32.282Z,94746.22
2022-08-22T16:14:36.058Z,94744.47
2022-08-22T16:17:35.434Z,94741.28
2022-08-22T16:20:40.591Z,94742.88
2022-08-22T16:23:23.088Z,94750.53
2022-08-22T16:26:34.996Z,94744.00
2022-08-22T16:29:06.644Z,94754.13
2022-08-22T16:31:38.762Z,94752.16
2022-08-22T16:34:28.422Z,94749.63
2022-08-22T16:37:29.510Z,94742.59
2022-08-22T16:40:13.029Z,94754.22
2022-08-22T16:42:46.328Z,94755.41
2022-08-22T16:45:19.539Z,94758.81
2022-08-22T16:47:58.378Z,94763.41
2022-08-22T16:50:32.273Z,94757.53
2022-08-22T16:53:06.835Z,94761.78
2022-08-22T16:55:51.855Z,94763.28
2022-08-22T16:58:57.841Z,94763.47
2022-08-22T17:01:52.236Z,94766.25
2022-08-22T17:04:25.597Z,94767.41
2022-08-22T17:07:17.442Z,94767.75
2022-08-22T17:10:12.176Z,94757.63
2022-08-22T17:12:51.094Z,94769.03
2022-08-22T17:15:28.235Z,94764.59
2022-08-22T17:18:10.807Z,94768.03
2022-08-22T17:20:46.346Z,94773.75
2022-08-22T17:23:22.717Z,94768.19
2022-08-22T17:25:57.250Z,94761.84
2022-08-22T17:28:34.278Z,94765.09
2022-08-22T17:31:15.898Z,94773.09
2022-08-22T17:34:03.068Z,94783.81
2022-08-22T17:36:42.501Z,94779.91
2022-08-22T17:39:23.217Z,94784.25
2022-08-22T17:41:54.979Z,94773.63
2022-08-22T17:44:28.307Z,94779.13
2022-08-22T17:47:00.362Z,94782.13
2022-08-22T17:49:31.120Z,94783.50
2022-08-22T17:52:07.296Z,94795.72
2022-08-22T17:54:40.414Z,94791.59
2022-08-22T17:57:12.473Z,94794.97
2022-08-22T17:59:48.089Z,94803.41
2022-08-22T18:02:19.745Z,94804.03
2022-08-22T18:04:52.406Z,94810.34
2022-08-22T18:07:28.543Z,94801.78
2022-08-22T18:10:00.592Z,94801.00
2022-08-22T18:12:34.497Z,94795.72
2022-08-22T18:15:07.752Z,94802.31
2022-08-22T18:17:38.778Z,94806.00
2022-08-22T18:20:11.090Z,94813.00
2022-08-22T18:22:45.286Z,94811.16
2022-08-22T18:25:32.641Z,94808.31
2022-08-22T18:28:04.946Z,94812.72
2022-08-22T18:30:36.677Z,94810.88
2022-08-22T18:33:09.848Z,94817.16
2022-08-22T18:35:42.998Z,94809.25
2022-08-22T18:38:20.541Z,94815.09
2022-08-22T18:40:51.787Z,94819.31
2022-08-22T18:43:23.948Z,94817.25
2022-08-22T18:46:03.293Z,94827.06
2022-08-22T18:48:46.196Z,94824.41
2022-08-22T18:51:25.021Z,94832.59
2022-08-22T18:53:56.146Z,94831.94
2022-08-22T18:56:44.961Z,94826.50
2022-08-22T18:59:25.410Z,94829.47
2022-08-22T19:02:02.639Z,94827.78
2022-08-22T19:04:40.873Z,94836.50
2022-08-22T19:07:34.248Z,94839.06
2022-08-22T19:10:18.798Z,94840.16
2022-08-22T19:13:01.215Z,94832.38
2022-08-22T19:15:35.322Z,94843.09
2022-08-22T19:18:36.292Z,94841.41
2022-08-22T19:21:37.836Z,94844.66
2022-08-22T19:24:07.128Z,94849.66
2022-08-22T19:26:39.225Z,94848.91
2022-08-22T19:29:42.102Z,94846.41
2022-08-22T19:32:14.037Z,94859.00
2022-08-22T19:34:47.174Z,94854.59
2022-08-22T19:37:33.086Z,94854.91
2022-08-22T19:40:05.309Z,94857.16
2022-08-22T19:42:38.272Z,94857.16
2022-08-22T19:45:11.360Z,94853.84
2022-08-22T19:47:40.977Z,94858.34
2022-08-22T19:50:14.641Z,94858.47
2022-08-22T19:52:58.729Z,94867.34
2022-08-22T19:55:31.621Z,94864.19
2022-08-22T19:58:09.188Z,94863.75
2022-08-22T20:00:49.271Z,94870.50
2022-08-22T20:03:20.281Z,94862.25
2022-08-22T20:05:57.041Z,94862.84
2022-08-22T20:08:37.926Z,94868.94
2022-08-22T20:11:17.561Z,94865.41
2022-08-22T20:13:47.056Z,94871.81
2022-08-22T20:16:18.595Z,94863.59
2022-08-22T20:19:05.441Z,94864.25
2022-08-22T20:21:44.597Z,94870.34
2022-08-22T20:24:16.544Z,94871.97
2022-08-22T20:27:03.632Z,94868.41
2022-08-22T20:29:37.286Z,94866.47
2022-08-22T20:32:06.598Z,94865.41
2022-08-22T20:34:38.895Z,94869.03
2022-08-22T20:37:29.472Z,94874.66
2022-08-22T20:40:00.525Z,94881.03
2022-08-22T20:42:32.033Z,94866.75
2022-08-22T20:45:01.899Z,94865.38
2022-08-22T20:47:41.364Z,94864.03
2022-08-22T20:50:11.982Z,94859.16
2022-08-22T20:52:43.703Z,94860.09
2022-08-22T20:55:27.302Z,94860.16
2022-08-22T20:58:02.520Z,94863.47
2022-08-22T21:00:35.640Z,94872.53
2022-08-22T21:03:08.965Z,94871.47
2022-08-22T21:05:39.767Z,94874.81
2022-08-22T21:08:10.437Z,94864.25
2022-08-22T21:10:57.217Z,94872.03
2022-08-22T21:13:27.198Z,94872.34
2022-08-22T21:15:57.974Z,94867.16
2022-08-22T21:18:29.790Z,94869.38
2022-08-22T21:21:07.230Z,94860.34
2022-08-22T21:23:47.694Z,94863.34
2022-08-22T21:26:22.444Z,94870.78
2022-08-22T21:28:57.309Z,94866.91
2022-08-22T21:31:28.511Z,94858.41
2022-08-22T21:33:57.153Z,94858.41
2022-08-22T21:36:27.818Z,94861.50
2022-08-22T21:38:59.770Z,94859.31
2022-08-22T21:41:29.487Z,94858.22
2022-08-22T21:43:57.223Z,94870.59
2022-08-22T21:46:28.660Z,94865.38
2022-08-22T21:49:00.317Z,94864.28
2022-08-22T21:51:46.769Z,94863.22
2022-08-22T21:54:39.713Z,94865.41
2022-08-22T21:57:21.137Z,94872.09
2022-08-22T21:59:59.557Z,94875.44
2022-08-22T22:02:36.764Z,94872.13
2022-08-22T22:05:08.131Z,94868.91
2022-08-22T22:07:37.524Z,94857.91
2022-08-22T22:10:07.235Z,94870.81
2022-08-22T22:12:34.884Z,94866.13
2022-08-22T22:15:02.726Z,94861.50
2022-08-22T22:17:30.422Z,94872.25
2022-08-22T22:19:59.421Z,94876.09
2022-08-22T22:22:27.131Z,94868.41
2022-08-22T22:24:54.790Z,94869.25
2022-08-22T22:27:22.453Z,94867.38
2022-08-22T22:29:50.121Z,94873.97
2022-08-22T22:32:17.764Z,94872.31
2022-08-22T22:34:45.431Z,94866.31
2022-08-22T22:37:14.770Z,94867.13
2022-08-22T22:39:42.843Z,94864.94
2022-08-22T22:42:10.586Z,94871.78
2022-08-22T22:44:38.257Z,94861.66
2022-08-22T22:47:06.283Z,94861.09
2022-08-22T22:49:34.402Z,94857.56
2022-08-22T22:52:02.158Z,94860.28
2022-08-22T22:54:32.325Z,94847.94
2022-08-22T22:57:02.024Z,94847.66
2022-08-22T22:59:29.733Z,94856.97
2022-08-22T23:02:03.181Z,94853.69
2022-08-22T23:04:31.194Z,94853.94
2022-08-22T23:06:58.970Z,94850.94
2022-08-22T23:09:37.891Z,94850.09
2022-08-22T23:12:08.406Z,94850.09
2022-08-22T23:14:36.390Z,94847.91
2022-08-22T23:17:05.005Z,94853.63
2022-08-22T23:19:32.763Z,94855.81
2022-08-22T23:22:01.260Z,94852.22
2022-08-22T23:24:31.128Z,94858.53
2022-08-22T23:26:59.047Z,94854.38
2022-08-22T23:29:28.206Z,94864.47
2022-08-22T23:31:58.176Z,94855.19
2022-08-22T23:34:28.017Z,94857.66
2022-08-22T23:36:57.850Z,94859.59
2022-08-22T23:39:27.045Z,94859.63
2022-08-22T23:41:55.123Z,94855.81
2022-08-22T23:44:30.822Z,94859.34
2022-08-22T23:46:58.984Z,94853.56
2022-08-22T23:49:27.338Z,94853.81
2022-08-22T23:51:55.207Z,94852.44
2022-08-22T23:54:23.518Z,94848.63
2022-08-22T23:56:53.042Z,94848.38
2022-08-22T23:59:22.501Z,94846.97
